Boynton Beach, Florida
Current Conditions -  °F | °C
As of 7:50 PM on Monday 20 Oct 2014 (Local Time) from KBCT Reporting Station
Broken Clouds Broken Clouds  
Wind Chill: 81°   Ceiling: 5000
Heat Index: 83°   Visibility: 10mi
Dew Point: 66°   Wind: 7mph
Humidity: 61%   Direction: 140°SE
Pressure: 29.97"   Gusts: NA
Location:  26.53°N, 80.06°W
Report Text: KBCT 202350Z 14006KT 10SM BKN050 27/19 A2997
Loading
Personal Weather Stations






























Interactive Weather Map
Tropical Storm Tracking
New forecast layout! Learn more

10-Day Weather Forecast

Advertisements
Track Severe Weather on mobile